64AR weather

Lowrance Airport
Driver, Arkansas, United States

Public forecast

Using degrees Fahrenheit for public forecast. Weather courtesy of forecast.io.

METAR (pilot weather report)

Closest report is Millington-Memphis Airport, 17.0 nm (31.6 km) SSE. Retrieved 2019/05/23 10:30 UTC (0 seconds ago):

KNQA 231030Z 15005KT 10SM CLR 24/22 A3010

TAF (pilot weather forecast)

Closest forecast is Jonesboro Municipal Airport, 33.2 nm (61.5 km) WNW. Retrieved 2019/05/23 06:30 UTC (4 hours ago):

TAF KJBR 230526Z 2306/2406 19007KT P6SM SCT250 FM231500 21012G18KT P6SM SCT040 SCT250 FM240200 19004KT P6SM SKC